Partly Cloudy Current Weather (METAR) For Innsbruck - Kranebitten Airport

All times on the weather descriptions are local

Observed at 20:50 - (29 mins ago)

Partly Cloudy

27°C

Partly Cloudy
Clouds: Few Clouds at 8,000ft, Scattered Clouds at 30,000ft
Wind: Variable at 02 knots
Visibility: Greater than 10km
QNH: 1016
Dew Point: 17°C
Runway in Use: Unable to determine, wind is variable

Sunrise Today: 05:23
Sunset Today: 21:15

Forecast Weather (TAF) For Innsbruck - Kranebitten Airport

Issued at 02:00 - (26 days ago)


Runway in Use: Unable to determine, wind is clam

Forecast valid until 02:00 on Friday

METAR/TAF RAW METAR / TAF

LOWI 051850Z VRB02KT 9999 FEW080 SCT300 27/17 Q1016 NOSIG

Weather Widget

Put weather from any of our airports on your website with our weather widget.

Find Another Search

Airport Search


Please Wait Please Wait - Loading
Close
Close

Login

Username:

Password:

Remember Me:

Remember me on this computer

Forgotten your password? Get a reset password sent to your registered e-mail address

Close

User Private Message

Subject:

Message: